sim
Sign-in with your pilot id or email,
or register
Callsign
Passwort

Schedule Details

Flight Number: EWG652 (2)
Departure: Cologne Bonn Airport (EDDK) at 05:35
Arrival: Thessaloniki International Airport (LGTS) at 08:10
Route: Eurowings Passenger Schedule. Enter filed route here before submitting Pirep.

Weather Information
Getting current METAR information for EDDK 172250Z 13007KT 9999 -RA NSC 17/16 Q1009 TEMPO RA
Getting current METAR information for LGTS 172250Z 11004KT 9999 FEW025 21/16 Q1015 NOSIG

Schedule Frequency

Route Map